Comer, Georgia
Current Conditions -  °F | °C
As of 4:51 AM on Thursday 18 Dec 2014 (Local Time) from KAHN Reporting Station
Clear Clear  
Wind Chill: 37°   Ceiling: Unl
Heat Index: 37°   Visibility: 10mi
Dew Point: 32°   Wind: 3mph
Humidity: 82%   Direction: 300°WNW
Pressure: 30.09"   Gusts: NA
Location:  34.06°N, 83.13°W
Report Text: KAHN 180951Z AUTO 30003KT 10SM CLR 03/00 A3009 RMK AO2 SLP194 T00280000
Loading
Personal Weather Stations






























Interactive Weather Map New forecast layout! Learn more

10-Day Weather Forecast

Advertisements
Track Severe Weather on mobile